Time;durP1;ratioP1;P1;durP2;ratioP2;P2;SDS_P1;SDS_P2;PMS_P1;PMS_P2;Temp;Humidity;BMP_temperature;BMP_pressure;BME280_temperature;BME280_humidity;BME280_pressure;Samples;Min_cycle;Max_cycle;Signal;HPM_P1;HPM_P2
2022/11/05 00:09:35;;;;;;;11.95;4.88;;;8.00;99.90;;;;;;5092320;28;20044;-64
2022/11/05 00:17:34;;;;;;;11.32;4.75;;;8.00;99.90;;;;;;5092724;28;20118;-64
2022/11/05 00:20:00;;;;;;;8.93;4.03;;;8.00;99.90;;;;;;5092242;28;20182;-63
2022/11/05 00:25:13;;;;;;;7.32;4.18;;;7.90;99.90;;;;;;5091985;28;20406;-63
2022/11/05 00:27:39;;;;;;;7.22;3.90;;;7.90;99.90;;;;;;5091411;28;20031;-64
2022/11/05 00:30:06;;;;;;;9.13;4.43;;;7.90;99.90;;;;;;5090667;28;20097;-63
2022/11/05 00:32:32;;;;;;;7.55;3.80;;;7.90;99.90;;;;;;5090815;28;20032;-63
2022/11/05 00:34:58;;;;;;;8.02;4.07;;;7.80;99.90;;;;;;5090589;28;20659;-63
2022/11/05 00:37:26;;;;;;;7.82;3.80;;;7.80;99.90;;;;;;5090679;28;20050;-63
2022/11/05 00:39:52;;;;;;;9.95;4.40;;;7.80;99.90;;;;;;5090604;28;20118;-63
2022/11/05 00:45:03;;;;;;;10.00;4.53;;;7.80;99.90;;;;;;5091217;28;20040;-63
2022/11/05 00:50:14;;;;;;;9.75;4.50;;;7.70;99.90;;;;;;5090955;28;20055;-63
2022/11/05 00:52:54;;;;;;;11.43;4.63;;;7.70;99.90;;;;;;5090881;28;20052;-64
2022/11/05 00:55:28;;;;;;;9.77;4.03;;;7.70;99.90;;;;;;5090380;28;20129;-63
2022/11/05 00:57:54;;;;;;;8.82;4.10;;;7.70;99.90;;;;;;5078650;28;20044;-64
2022/11/05 01:00:22;;;;;;;9.57;3.83;;;7.70;99.90;;;;;;5088483;28;20075;-64
2022/11/05 01:02:47;;;;;;;7.00;3.88;;;7.70;99.90;;;;;;5090155;28;20047;-63
2022/11/05 01:05:13;;;;;;;9.20;3.95;;;7.70;99.90;;;;;;5089969;28;20044;-64
2022/11/05 01:07:39;;;;;;;9.10;4.03;;;7.60;99.90;;;;;;5090153;28;20361;-64
2022/11/05 01:10:05;;;;;;;7.85;3.97;;;7.60;99.90;;;;;;5090112;28;20054;-63
2022/11/05 01:12:31;;;;;;;8.50;3.72;;;7.50;99.90;;;;;;5090251;28;20373;-63
2022/11/05 01:14:57;;;;;;;9.55;4.50;;;7.50;99.90;;;;;;5072262;28;20054;-64
2022/11/05 01:17:22;;;;;;;7.65;3.50;;;7.50;99.90;;;;;;5090393;28;20048;-65
2022/11/05 01:19:48;;;;;;;8.43;4.22;;;7.50;99.90;;;;;;5089902;28;20036;-63
2022/11/05 01:22:13;;;;;;;9.73;3.95;;;7.50;99.90;;;;;;5089662;28;20100;-63
2022/11/05 01:24:39;;;;;;;8.10;3.38;;;7.50;99.90;;;;;;5089446;28;20366;-64
2022/11/05 01:27:04;;;;;;;8.05;4.13;;;7.40;99.90;;;;;;5090575;28;20036;-64
2022/11/05 01:29:30;;;;;;;8.10;3.95;;;7.50;99.90;;;;;;5090281;28;20051;-64
2022/11/05 01:31:55;;;;;;;7.18;3.70;;;7.40;99.90;;;;;;5090298;28;20036;-63
2022/11/05 01:34:21;;;;;;;8.88;4.43;;;7.40;99.90;;;;;;5090026;28;20398;-63
2022/11/05 01:36:47;;;;;;;9.23;3.70;;;7.40;99.90;;;;;;5089833;28;20329;-63
2022/11/05 01:39:13;;;;;;;9.75;4.47;;;7.40;99.90;;;;;;5089348;28;20473;-63
2022/11/05 01:41:38;;;;;;;7.10;4.03;;;7.30;99.90;;;;;;5089519;28;20442;-64
2022/11/05 01:44:04;;;;;;;9.68;4.75;;;7.30;99.90;;;;;;5089456;28;20116;-64
2022/11/05 01:46:38;;;;;;;9.10;4.13;;;7.30;99.90;;;;;;5089434;28;20071;-63
2022/11/05 01:49:27;;;;;;;;;;;7.20;99.90;;;;;;5090271;28;20047;-64
2022/11/05 01:51:54;;;;;;;7.07;3.85;;;7.20;99.90;;;;;;5089309;28;20248;-64
2022/11/05 01:54:25;;;;;;;8.90;4.20;;;7.10;99.90;;;;;;5089166;28;20036;-63
2022/11/05 01:56:55;;;;;;;8.48;3.90;;;7.10;99.90;;;;;;5090035;28;20097;-63
2022/11/05 01:59:35;;;;;;;9.55;4.18;;;7.10;99.90;;;;;;5089327;28;20049;-64
2022/11/05 02:02:02;;;;;;;8.85;3.78;;;7.10;99.90;;;;;;5088520;28;20040;-63
2022/11/05 02:04:37;;;;;;;7.78;4.00;;;7.00;99.90;;;;;;5088975;28;20048;-64
2022/11/05 02:07:06;;;;;;;11.00;4.20;;;7.00;99.90;;;;;;5092694;28;20089;-63
2022/11/05 02:09:42;;;;;;;9.52;3.95;;;7.00;99.90;;;;;;5096770;28;20040;-64
2022/11/05 02:12:09;;;;;;;7.35;4.07;;;7.00;99.90;;;;;;5095928;28;20028;-63
2022/11/05 02:14:35;;;;;;;8.23;4.18;;;6.90;99.90;;;;;;5095088;28;20585;-64
2022/11/05 02:17:24;;;;;;;8.38;4.15;;;6.90;99.90;;;;;;5096377;28;20035;-64
2022/11/05 02:20:10;;;;;;;11.07;4.40;;;6.90;99.90;;;;;;5096419;28;20071;-63
2022/11/05 02:22:39;;;;;;;10.13;4.20;;;6.90;99.90;;;;;;5094579;28;20491;-64
2022/11/05 02:25:13;;;;;;;8.13;4.53;;;6.80;99.90;;;;;;5095495;28;20384;-64
2022/11/05 02:27:51;;;;;;;6.90;4.57;;;6.80;99.90;;;;;;5095991;28;20446;-64
2022/11/05 02:30:44;;;;;;;7.72;4.63;;;6.80;99.90;;;;;;5096519;28;20119;-64
2022/11/05 02:33:34;;;;;;;11.70;5.43;;;6.80;99.90;;;;;;5084694;28;20047;-64
2022/11/05 02:36:10;;;;;;;9.68;5.00;;;6.80;99.90;;;;;;5096764;28;20039;-63
2022/11/05 02:38:59;;;;;;;8.75;4.93;;;6.80;99.90;;;;;;5096265;28;20060;-64
2022/11/05 02:41:51;;;;;;;10.25;5.60;;;6.80;99.90;;;;;;5083610;28;20055;-63
2022/11/05 02:44:34;;;;;;;8.00;5.57;;;6.70;99.90;;;;;;5093818;28;20056;-64
2022/11/05 02:47:02;;;;;;;10.05;5.60;;;6.70;99.90;;;;;;5096235;28;20028;-64
2022/11/05 02:49:37;;;;;;;8.73;5.43;;;6.70;99.90;;;;;;5095917;28;20417;-64
2022/11/05 02:52:08;;;;;;;10.68;6.15;;;6.70;99.90;;;;;;5095955;28;20093;-64
2022/11/05 02:54:58;;;;;;;12.00;5.97;;;6.60;99.90;;;;;;5094426;28;20044;-63
2022/11/05 02:57:23;;;;;;;10.88;5.78;;;6.60;99.90;;;;;;5083101;28;20047;-65
2022/11/05 02:59:59;;;;;;;16.10;6.13;;;6.60;99.90;;;;;;5096181;28;20058;-64
2022/11/05 03:02:25;;;;;;;11.48;5.47;;;6.50;99.90;;;;;;5095865;28;20109;-64
2022/11/05 03:04:51;;;;;;;8.57;5.68;;;6.50;99.90;;;;;;5095529;28;20048;-64
2022/11/05 03:07:30;;;;;;;10.43;5.95;;;6.40;99.90;;;;;;5095745;28;20417;-63
2022/11/05 03:10:12;;;;;;;11.25;5.82;;;6.40;99.90;;;;;;5095834;28;20071;-63
2022/11/05 03:13:02;;;;;;;9.88;5.50;;;6.30;99.90;;;;;;5095769;28;20040;-64
2022/11/05 03:15:56;;;;;;;10.65;5.32;;;6.30;99.90;;;;;;5095679;28;20486;-64
2022/11/05 03:18:57;;;;;;;10.25;5.47;;;6.40;99.90;;;;;;5094175;28;20127;-63
2022/11/05 03:21:28;;;;;;;9.13;5.30;;;6.30;99.90;;;;;;5083967;28;20410;-65
2022/11/05 03:24:29;;;;;;;10.93;5.25;;;6.30;99.90;;;;;;5092657;28;20105;-64
2022/11/05 03:27:09;;;;;;;9.70;4.72;;;6.30;99.90;;;;;;5093262;28;20047;-64
2022/11/05 03:29:50;;;;;;;9.13;5.05;;;6.30;99.90;;;;;;5079387;28;20055;-65
2022/11/05 03:32:19;;;;;;;9.65;5.40;;;6.30;99.90;;;;;;5092156;28;20046;-64
2022/11/05 03:34:50;;;;;;;10.70;4.88;;;6.30;99.90;;;;;;5091889;28;20040;-64
2022/11/05 03:37:22;;;;;;;8.25;4.30;;;6.20;99.90;;;;;;5091939;28;20040;-63
2022/11/05 03:39:53;;;;;;;11.73;5.43;;;6.20;99.90;;;;;;5092055;28;20032;-64
2022/11/05 03:42:24;;;;;;;7.00;4.43;;;6.20;99.90;;;;;;5091868;28;20204;-64
2022/11/05 03:44:54;;;;;;;8.57;4.35;;;6.20;99.90;;;;;;5092234;28;20168;-64
2022/11/05 03:47:26;;;;;;;9.02;4.60;;;6.20;99.90;;;;;;5092511;28;20105;-64
2022/11/05 03:50:03;;;;;;;9.10;4.97;;;6.10;99.90;;;;;;5092229;28;20698;-64
2022/11/05 03:52:34;;;;;;;7.88;4.13;;;6.20;99.90;;;;;;5091514;28;20040;-63
2022/11/05 03:55:00;;;;;;;8.00;4.40;;;6.20;99.90;;;;;;5092464;28;20051;-65
2022/11/05 03:57:30;;;;;;;7.20;4.05;;;6.10;99.90;;;;;;5091736;28;20047;-64
2022/11/05 03:59:56;;;;;;;8.40;4.10;;;6.20;99.90;;;;;;5091117;28;20060;-63
2022/11/05 04:02:24;;;;;;;8.60;4.43;;;6.20;99.90;;;;;;5090590;28;20050;-64
2022/11/05 04:04:51;;;;;;;8.70;4.28;;;6.20;99.90;;;;;;5091199;28;20040;-64
2022/11/05 04:17:05;;;;;;;9.48;4.70;;;6.10;99.90;;;;;;5092007;28;20224;-63
2022/11/05 04:18:15;;;;;;;8.68;4.80;;;6.10;99.90;;;;;;5091557;28;20135;-63
2022/11/05 04:26:09;;;;;;;10.07;5.47;;;6.00;99.90;;;;;;5091737;28;20320;-64
2022/11/05 04:31:19;;;;;;;8.73;4.75;;;6.00;99.90;;;;;;5080806;28;20040;-63
2022/11/05 04:33:45;;;;;;;9.02;5.45;;;6.00;99.90;;;;;;5091180;28;20330;-63
2022/11/05 04:36:10;;;;;;;9.20;5.60;;;6.00;99.90;;;;;;5091267;28;20044;-64
2022/11/05 04:38:36;;;;;;;9.90;4.97;;;6.00;99.90;;;;;;5091315;28;20056;-63
2022/11/05 04:41:15;;;;;;;9.85;5.18;;;6.00;99.90;;;;;;5091025;28;20040;-63
2022/11/05 04:43:41;;;;;;;8.95;4.82;;;6.00;99.90;;;;;;5076236;28;20101;-63
2022/11/05 04:46:06;;;;;;;9.88;5.68;;;6.00;99.90;;;;;;5090888;28;20048;-63
2022/11/05 04:48:32;;;;;;;7.43;4.78;;;6.00;99.90;;;;;;5089408;28;20055;-63
2022/11/05 04:50:58;;;;;;;9.73;5.30;;;5.90;99.90;;;;;;5090178;28;20456;-64
2022/11/05 04:53:23;;;;;;;8.10;5.35;;;6.00;99.90;;;;;;5090194;28;20040;-63
2022/11/05 04:55:49;;;;;;;9.00;4.97;;;6.00;99.90;;;;;;5091158;28;20107;-63
2022/11/05 04:58:14;;;;;;;7.95;4.95;;;6.00;99.90;;;;;;5091012;28;20052;-63
2022/11/05 05:00:40;;;;;;;8.65;5.22;;;6.00;99.90;;;;;;5090037;28;20056;-62
2022/11/05 05:03:05;;;;;;;9.00;5.90;;;6.00;99.90;;;;;;5090603;28;20055;-63
2022/11/05 05:05:31;;;;;;;12.52;5.38;;;5.90;99.90;;;;;;5090738;28;20040;-64
2022/11/05 05:08:00;;;;;;;10.20;5.63;;;5.90;99.90;;;;;;5090751;28;20149;-63
2022/11/05 05:10:26;;;;;;;9.13;5.05;;;5.90;99.90;;;;;;5089630;28;20137;-64
2022/11/05 05:12:52;;;;;;;10.63;6.35;;;5.90;99.90;;;;;;5089756;28;20134;-63
2022/11/05 05:15:17;;;;;;;9.27;5.43;;;5.90;99.90;;;;;;5090686;28;20036;-63
2022/11/05 05:17:43;;;;;;;9.82;6.20;;;5.90;99.90;;;;;;5090639;28;20441;-63
2022/11/05 05:22:54;;;;;;;8.63;5.05;;;5.90;99.90;;;;;;5077022;28;20036;-64
2022/11/05 05:25:20;;;;;;;11.27;5.85;;;5.90;99.90;;;;;;5089899;28;20082;-63
2022/11/05 05:27:46;;;;;;;13.38;6.80;;;6.00;99.90;;;;;;5089809;28;20442;-63
2022/11/05 05:30:11;;;;;;;11.40;6.25;;;6.00;99.90;;;;;;5089453;28;20118;-63
2022/11/05 05:32:37;;;;;;;7.97;5.60;;;6.10;99.90;;;;;;5089312;28;20082;-63
2022/11/05 05:35:03;;;;;;;10.68;5.97;;;6.10;99.90;;;;;;5090101;28;20072;-63
2022/11/05 05:37:28;;;;;;;11.55;6.57;;;6.10;99.90;;;;;;5089800;28;20036;-65
2022/11/05 05:39:54;;;;;;;10.10;5.72;;;6.10;99.90;;;;;;5089805;28;20445;-64
2022/11/05 05:42:21;;;;;;;9.23;6.07;;;6.10;99.90;;;;;;5088677;28;20361;-63
2022/11/05 05:44:47;;;;;;;10.10;5.78;;;6.20;99.90;;;;;;5089191;28;20149;-63
2022/11/05 05:47:13;;;;;;;9.27;5.90;;;6.20;99.90;;;;;;5089601;28;20032;-63
2022/11/05 05:49:38;;;;;;;8.48;5.88;;;6.30;99.90;;;;;;5089186;28;20100;-63
2022/11/05 05:52:04;;;;;;;8.90;5.90;;;6.30;99.90;;;;;;5090067;28;20398;-64
2022/11/05 05:54:30;;;;;;;9.90;5.97;;;6.30;99.90;;;;;;5090272;28;20417;-63
2022/11/05 05:56:56;;;;;;;10.27;5.53;;;6.30;99.90;;;;;;5090098;28;20036;-63
2022/11/05 05:59:22;;;;;;;11.00;5.50;;;6.30;99.90;;;;;;5089505;28;20059;-63
2022/11/05 06:01:48;;;;;;;10.63;6.03;;;6.30;99.90;;;;;;5089267;28;20036;-63
2022/11/05 06:04:14;;;;;;;10.38;6.15;;;6.30;99.90;;;;;;5089397;28;20050;-63
2022/11/05 06:06:40;;;;;;;9.82;5.30;;;6.30;99.90;;;;;;5089478;28;20040;-62
2022/11/05 06:09:05;;;;;;;9.05;5.50;;;6.30;99.90;;;;;;5089590;28;20051;-63
2022/11/05 06:11:31;;;;;;;9.23;4.97;;;6.30;99.90;;;;;;5089398;28;20404;-64
2022/11/05 06:13:57;;;;;;;11.30;6.18;;;6.20;99.90;;;;;;5088940;28;20028;-63
2022/11/05 06:16:22;;;;;;;9.57;5.47;;;6.20;99.90;;;;;;5089229;28;20035;-64
2022/11/05 06:18:48;;;;;;;11.90;5.90;;;6.20;99.90;;;;;;5089824;28;20043;-63
2022/11/05 06:21:16;;;;;;;7.72;5.60;;;6.20;99.90;;;;;;5089570;28;20036;-63
2022/11/05 06:23:43;;;;;;;10.80;6.00;;;6.20;99.90;;;;;;5089416;28;20052;-64
2022/11/05 06:26:12;;;;;;;10.70;5.72;;;6.20;99.90;;;;;;5089796;28;20051;-63
2022/11/05 06:28:38;;;;;;;10.32;6.25;;;6.20;99.90;;;;;;5089581;28;20040;-63
2022/11/05 06:31:04;;;;;;;10.25;5.72;;;6.10;99.90;;;;;;5089582;28;20028;-64
2022/11/05 06:33:30;;;;;;;8.60;5.95;;;6.10;99.90;;;;;;5089392;28;20457;-63
2022/11/05 06:36:00;;;;;;;11.98;6.78;;;6.10;99.90;;;;;;5089616;28;20032;-64
2022/11/05 06:38:26;;;;;;;7.63;5.70;;;6.10;99.90;;;;;;5089466;28;20048;-63
2022/11/05 06:40:51;;;;;;;8.75;5.43;;;6.10;99.90;;;;;;5089301;28;20101;-63
2022/11/05 06:43:17;;;;;;;11.57;5.90;;;6.10;99.90;;;;;;5089493;28;20089;-64
2022/11/05 06:45:43;;;;;;;8.90;5.75;;;6.10;99.90;;;;;;5088153;28;20044;-62
2022/11/05 06:48:08;;;;;;;8.00;5.40;;;6.00;99.90;;;;;;5089438;28;20101;-63
2022/11/05 06:50:34;;;;;;;8.55;5.53;;;6.00;99.90;;;;;;5088695;28;20066;-64
2022/11/05 06:53:01;;;;;;;7.93;5.60;;;6.00;99.90;;;;;;5088678;28;20032;-63
2022/11/05 06:55:28;;;;;;;12.38;6.05;;;5.90;99.90;;;;;;5092566;28;20118;-63
2022/11/05 06:57:54;;;;;;;8.95;5.35;;;5.90;99.90;;;;;;5093593;28;20179;-63
2022/11/05 07:00:21;;;;;;;10.07;5.70;;;5.90;99.90;;;;;;5092650;28;20048;-63
2022/11/05 07:02:47;;;;;;;8.40;5.55;;;5.90;99.90;;;;;;5092846;28;20079;-64
2022/11/05 07:05:14;;;;;;;12.10;6.18;;;5.90;99.90;;;;;;5092988;28;20036;-63
2022/11/05 07:07:41;;;;;;;9.00;5.88;;;5.90;99.90;;;;;;5092339;28;20113;-63
2022/11/05 07:10:10;;;;;;;16.85;6.68;;;5.90;99.90;;;;;;5092903;28;20036;-63
2022/11/05 07:12:36;;;;;;;8.35;6.30;;;5.90;99.90;;;;;;5092363;28;20119;-64
2022/11/05 07:15:02;;;;;;;10.30;6.10;;;6.00;99.90;;;;;;5093212;28;20191;-64
2022/11/05 07:17:28;;;;;;;9.02;5.53;;;5.90;99.90;;;;;;5091953;28;20115;-63
2022/11/05 07:19:54;;;;;;;8.80;6.10;;;6.00;99.90;;;;;;5091906;28;20429;-64
2022/11/05 07:22:19;;;;;;;12.27;6.35;;;6.00;99.90;;;;;;5091811;28;20040;-63
2022/11/05 07:24:46;;;;;;;8.75;6.40;;;6.00;99.90;;;;;;5092053;28;20365;-63
2022/11/05 07:27:12;;;;;;;9.30;5.95;;;6.00;99.90;;;;;;5092817;28;20040;-63
2022/11/05 07:29:38;;;;;;;8.07;5.65;;;6.10;99.90;;;;;;5092789;28;20093;-63
2022/11/05 07:32:04;;;;;;;8.50;5.90;;;6.10;99.90;;;;;;5092152;28;20036;-64
2022/11/05 07:34:31;;;;;;;8.80;6.07;;;6.20;99.90;;;;;;5092964;28;20046;-63
2022/11/05 07:36:56;;;;;;;8.48;6.07;;;6.30;99.90;;;;;;5092092;28;20071;-64
2022/11/05 07:39:22;;;;;;;8.05;5.78;;;6.30;99.90;;;;;;5091520;28;20055;-63
2022/11/05 07:41:48;;;;;;;8.77;5.75;;;6.40;99.90;;;;;;5091643;28;20073;-63
2022/11/05 07:44:13;;;;;;;9.50;5.78;;;6.50;99.90;;;;;;5091388;28;20313;-64
2022/11/05 07:46:42;;;;;;;7.57;5.57;;;6.50;99.90;;;;;;5091382;28;20040;-65
2022/11/05 07:49:08;;;;;;;7.25;5.35;;;6.60;99.90;;;;;;5091352;28;20032;-63
2022/11/05 07:51:34;;;;;;;7.13;6.18;;;6.70;99.90;;;;;;5089022;28;20183;-63
2022/11/05 07:53:59;;;;;;;16.13;5.97;;;6.70;99.90;;;;;;5089559;28;20028;-63
2022/11/05 07:56:25;;;;;;;9.23;5.95;;;6.80;99.90;;;;;;5090859;28;20040;-64
2022/11/05 07:58:50;;;;;;;8.90;5.65;;;6.80;99.90;;;;;;5089783;28;20051;-64
2022/11/05 08:01:16;;;;;;;9.02;6.15;;;6.90;99.90;;;;;;5090072;28;20041;-63
2022/11/05 08:03:41;;;;;;;8.63;5.80;;;6.90;99.90;;;;;;5088444;28;20280;-63
2022/11/05 08:06:07;;;;;;;9.02;5.47;;;7.00;99.90;;;;;;5090207;28;20036;-64
2022/11/05 08:08:33;;;;;;;7.68;5.53;;;7.00;99.90;;;;;;5089610;28;20042;-63
2022/11/05 08:11:04;;;;;;;8.43;5.35;;;7.20;99.90;;;;;;5090690;28;20085;-64
2022/11/05 08:13:29;;;;;;;6.72;5.00;;;7.30;99.90;;;;;;5090821;28;20035;-62
2022/11/05 08:15:58;;;;;;;7.82;5.05;;;7.40;99.90;;;;;;5089747;28;20028;-64
2022/11/05 08:18:30;;;;;;;8.13;5.28;;;7.50;99.90;;;;;;5089555;28;20405;-64
2022/11/05 08:21:01;;;;;;;8.50;4.60;;;7.60;99.90;;;;;;5088114;28;20047;-64
2022/11/05 08:23:27;;;;;;;7.55;4.97;;;7.70;99.90;;;;;;5088734;28;20106;-63
2022/11/05 08:25:54;;;;;;;7.70;4.82;;;7.90;99.90;;;;;;5090298;28;20032;-63
2022/11/05 08:28:20;;;;;;;9.15;5.10;;;8.00;99.90;;;;;;5089222;28;20132;-63
2022/11/05 08:30:53;;;;;;;7.07;4.70;;;8.00;99.90;;;;;;5089790;28;20040;-65
2022/11/05 08:33:19;;;;;;;9.15;4.50;;;8.20;99.90;;;;;;5089774;28;20035;-64
2022/11/05 08:35:46;;;;;;;8.43;4.60;;;8.30;99.90;;;;;;5090290;28;20032;-63
2022/11/05 08:38:14;;;;;;;7.07;4.50;;;8.30;99.90;;;;;;5090267;28;20032;-63
2022/11/05 08:40:41;;;;;;;6.85;4.68;;;8.40;99.90;;;;;;5090350;28;20065;-65
2022/11/05 08:43:09;;;;;;;8.35;3.95;;;8.50;99.90;;;;;;5089420;28;20423;-63
2022/11/05 08:45:36;;;;;;;6.32;4.10;;;8.60;99.90;;;;;;5090316;28;20358;-62
2022/11/05 08:48:04;;;;;;;5.95;4.03;;;8.70;99.90;;;;;;5090648;28;20064;-62
2022/11/05 08:50:30;;;;;;;6.88;4.13;;;8.70;99.90;;;;;;5088901;28;20046;-63
2022/11/05 08:52:56;;;;;;;6.63;4.00;;;8.80;99.90;;;;;;5089378;28;20123;-63
2022/11/05 08:55:22;;;;;;;5.93;4.00;;;9.00;99.90;;;;;;5090528;28;20111;-63
2022/11/05 08:57:47;;;;;;;7.55;3.80;;;9.00;99.90;;;;;;5090370;28;20381;-64
2022/11/05 09:00:14;;;;;;;7.07;3.70;;;9.10;99.90;;;;;;5089909;28;20548;-63
2022/11/05 09:02:40;;;;;;;7.93;4.10;;;9.20;99.90;;;;;;5089610;28;20044;-64
2022/11/05 09:05:06;;;;;;;10.05;4.47;;;9.20;99.90;;;;;;5090172;28;20039;-63
2022/11/05 09:07:32;;;;;;;6.10;3.85;;;9.30;99.90;;;;;;5090076;28;20454;-64
2022/11/05 09:09:58;;;;;;;7.60;3.95;;;9.40;99.90;;;;;;5090066;28;20048;-64
2022/11/05 09:12:23;;;;;;;8.75;4.15;;;9.40;99.90;;;;;;5090008;28;20357;-64
2022/11/05 09:14:49;;;;;;;8.93;4.00;;;9.50;99.90;;;;;;5090223;28;20044;-63
2022/11/05 09:17:16;;;;;;;11.00;3.90;;;9.60;99.90;;;;;;5089583;28;20050;-63
2022/11/05 09:19:42;;;;;;;7.03;3.85;;;9.70;99.90;;;;;;5090370;28;20040;-63
2022/11/05 09:22:11;;;;;;;10.30;4.18;;;9.80;99.90;;;;;;5089497;28;20036;-64
2022/11/05 09:24:37;;;;;;;6.60;3.65;;;9.90;99.90;;;;;;5090027;28;20054;-64
2022/11/05 09:27:03;;;;;;;6.35;3.65;;;9.90;99.90;;;;;;5090257;28;20032;-63
2022/11/05 09:29:28;;;;;;;6.57;3.60;;;10.00;99.90;;;;;;5088901;28;20032;-64
2022/11/05 09:31:54;;;;;;;7.53;3.63;;;10.10;99.90;;;;;;5088990;28;20054;-64
2022/11/05 09:34:20;;;;;;;5.65;3.40;;;10.20;99.90;;;;;;5088904;28;20074;-63
2022/11/05 09:36:45;;;;;;;7.50;3.83;;;10.20;99.90;;;;;;5089579;28;20055;-64
2022/11/05 09:39:11;;;;;;;6.00;3.92;;;10.20;99.90;;;;;;5089185;28;20032;-65
2022/11/05 09:41:39;;;;;;;8.25;4.10;;;10.20;99.90;;;;;;5089231;28;20044;-64
2022/11/05 09:44:16;;;;;;;7.80;3.78;;;10.20;99.90;;;;;;5089170;28;20036;-64
2022/11/05 09:46:55;;;;;;;6.65;3.97;;;10.40;99.90;;;;;;5088699;28;20163;-64
2022/11/05 09:49:34;;;;;;;7.53;3.92;;;10.30;99.90;;;;;;5079871;28;20070;-64
2022/11/05 09:52:00;;;;;;;6.35;3.78;;;10.40;99.90;;;;;;5086176;28;20414;-64
2022/11/05 09:54:32;;;;;;;7.30;4.18;;;10.50;99.90;;;;;;5089011;28;20112;-63
2022/11/05 09:57:00;;;;;;;7.35;3.75;;;10.60;99.90;;;;;;5088199;28;20042;-63
2022/11/05 09:59:43;;;;;;;6.90;4.07;;;10.70;99.90;;;;;;5086523;28;20130;-64
2022/11/05 10:02:17;;;;;;;7.90;4.18;;;10.70;99.90;;;;;;5088867;28;20072;-65
2022/11/05 10:04:46;;;;;;;5.67;3.70;;;10.70;99.90;;;;;;5089403;28;20476;-64
2022/11/05 10:07:20;;;;;;;7.15;3.88;;;10.60;99.90;;;;;;5089802;28;20417;-64
2022/11/05 10:09:50;;;;;;;6.65;3.83;;;10.60;99.90;;;;;;5089494;28;20409;-64
2022/11/05 10:12:19;;;;;;;6.88;3.47;;;10.60;99.90;;;;;;5088361;28;20048;-63
2022/11/05 10:15:15;;;;;;;8.85;3.53;;;10.70;99.90;;;;;;5089684;28;20445;-64
2022/11/05 10:17:47;;;;;;;4.97;3.33;;;10.80;99.90;;;;;;5089617;28;20043;-64
2022/11/05 10:20:29;;;;;;;7.32;3.90;;;11.00;99.90;;;;;;5089191;28;20046;-64
2022/11/05 10:22:59;;;;;;;8.35;3.40;;;11.10;99.90;;;;;;5088789;28;20039;-64
2022/11/05 10:25:30;;;;;;;7.25;3.63;;;11.10;99.90;;;;;;5089455;28;20044;-63
2022/11/05 10:27:56;;;;;;;7.53;3.60;;;11.10;99.90;;;;;;5089772;28;20047;-64
2022/11/05 10:30:22;;;;;;;5.90;2.72;;;11.20;99.90;;;;;;5091303;28;20043;-63
2022/11/05 10:32:50;;;;;;;8.13;3.10;;;11.20;99.90;;;;;;5092015;28;20040;-63
2022/11/05 10:35:21;;;;;;;13.05;2.90;;;11.20;99.90;;;;;;5092034;28;20066;-65
2022/11/05 10:37:48;;;;;;;6.22;2.38;;;11.30;99.90;;;;;;5093181;28;20455;-64
2022/11/05 10:40:41;;;;;;;5.38;2.58;;;11.30;99.90;;;;;;5075497;28;20058;-64
2022/11/05 10:43:13;;;;;;;5.47;2.70;;;11.40;99.90;;;;;;5089366;28;20051;-63
2022/11/05 10:45:42;;;;;;;4.80;2.70;;;11.40;99.90;;;;;;5093692;28;20062;-63
2022/11/05 10:48:41;;;;;;;5.88;2.92;;;11.50;99.90;;;;;;5093546;28;20036;-64
2022/11/05 10:51:07;;;;;;;6.53;3.20;;;11.50;99.90;;;;;;5085309;28;20032;-64
2022/11/05 10:53:35;;;;;;;5.95;2.90;;;11.60;99.90;;;;;;5091671;28;20080;-63
2022/11/05 10:56:01;;;;;;;4.63;2.55;;;11.60;99.90;;;;;;5093413;28;20032;-64
2022/11/05 10:58:30;;;;;;;6.30;2.53;;;11.60;99.90;;;;;;5093057;28;20502;-64
2022/11/05 11:00:55;;;;;;;8.05;2.75;;;11.60;99.90;;;;;;5089635;28;20044;-63
2022/11/05 11:03:44;;;;;;;6.93;3.13;;;11.60;99.90;;;;;;5084767;28;20040;-64
2022/11/05 11:06:26;;;;;;;6.03;2.92;;;11.60;99.90;;;;;;5092458;28;20047;-64
2022/11/05 11:08:54;;;;;;;7.93;2.63;;;11.60;99.90;;;;;;5080920;28;20084;-64
2022/11/05 11:11:41;;;;;;;6.97;2.60;;;11.60;99.90;;;;;;5091431;28;20381;-63
2022/11/05 11:14:13;;;;;;;7.72;2.83;;;11.60;99.90;;;;;;5092920;28;20044;-65
2022/11/05 11:16:44;;;;;;;7.20;3.28;;;11.60;99.90;;;;;;5091564;28;20453;-64
2022/11/05 11:19:30;;;;;;;7.25;3.10;;;11.60;99.90;;;;;;5092275;28;20427;-64
2022/11/05 11:22:01;;;;;;;7.43;3.55;;;11.60;99.90;;;;;;5091026;28;20036;-64
2022/11/05 11:24:28;;;;;;;8.77;3.50;;;11.60;99.90;;;;;;5078642;28;20498;-64
2022/11/05 11:26:59;;;;;;;6.82;3.70;;;11.50;99.90;;;;;;5092933;28;20151;-64
2022/11/05 11:29:27;;;;;;;8.32;3.15;;;11.50;99.90;;;;;;5092612;28;20044;-64
2022/11/05 11:31:55;;;;;;;8.55;4.10;;;11.50;99.90;;;;;;5091784;28;20743;-65
2022/11/05 11:34:32;;;;;;;5.68;3.35;;;11.40;99.90;;;;;;5092262;28;20060;-64
2022/11/05 11:37:18;;;;;;;10.10;3.88;;;11.40;99.90;;;;;;5092710;28;20036;-64
2022/11/05 11:39:49;;;;;;;11.50;3.72;;;11.40;99.90;;;;;;5091142;28;20460;-64
2022/11/05 11:42:37;;;;;;;7.72;3.33;;;11.40;99.90;;;;;;5092228;28;20055;-64
2022/11/05 11:45:31;;;;;;;7.85;3.38;;;11.40;99.90;;;;;;5092495;28;20040;-65
2022/11/05 11:47:59;;;;;;;7.63;4.00;;;11.40;99.90;;;;;;5092612;28;20127;-65
2022/11/05 11:50:43;;;;;;;8.65;4.40;;;11.40;99.90;;;;;;5092048;28;20055;-64
2022/11/05 11:53:15;;;;;;;8.20;4.15;;;11.40;99.90;;;;;;5086413;28;20357;-64
2022/11/05 11:55:54;;;;;;;10.35;4.00;;;11.40;99.90;;;;;;5092481;28;20425;-65
2022/11/05 11:58:21;;;;;;;7.50;4.10;;;11.40;99.90;;;;;;5092289;28;20047;-65
2022/11/05 12:00:57;;;;;;;16.83;5.50;;;11.40;99.90;;;;;;5091599;28;20048;-66
2022/11/05 12:03:48;;;;;;;10.15;4.50;;;11.50;99.90;;;;;;5090415;28;20139;-66
2022/11/05 12:06:25;;;;;;;9.13;5.18;;;11.50;99.90;;;;;;5092147;28;20458;-65
2022/11/05 12:09:37;;;;;;;13.18;4.95;;;11.50;99.90;;;;;;5091980;28;20040;-66
2022/11/05 12:12:14;;;;;;;9.32;4.43;;;11.60;99.90;;;;;;5090996;28;20507;-65
2022/11/05 12:15:00;;;;;;;9.25;4.55;;;11.60;99.90;;;;;;5090875;28;20050;-65
2022/11/05 12:17:40;;;;;;;8.55;4.32;;;11.70;99.90;;;;;;5091651;28;20047;-66
2022/11/05 12:20:41;;;;;;;7.03;4.03;;;11.70;99.90;;;;;;5092002;28;20036;-65
2022/11/05 12:23:25;;;;;;;10.10;4.50;;;11.70;99.90;;;;;;5080439;28;20058;-62
2022/11/05 12:26:02;;;;;;;6.68;4.28;;;11.80;99.90;;;;;;5091603;28;20040;-63
2022/11/05 12:28:44;;;;;;;8.05;3.95;;;11.80;99.90;;;;;;5091894;28;20040;-62
2022/11/05 12:31:13;;;;;;;14.60;3.95;;;11.90;99.90;;;;;;5091438;28;20097;-63
2022/11/05 12:34:00;;;;;;;10.88;4.80;;;11.90;99.90;;;;;;5091432;28;20052;-64
2022/11/05 12:36:45;;;;;;;7.03;3.80;;;12.00;99.90;;;;;;5091651;28;20040;-64
2022/11/05 12:39:26;;;;;;;9.43;4.60;;;12.00;99.90;;;;;;5091570;28;20227;-65
2022/11/05 12:42:05;;;;;;;9.45;4.53;;;12.00;99.90;;;;;;5090909;28;20093;-64
2022/11/05 12:45:02;;;;;;;9.15;4.50;;;12.00;99.90;;;;;;5073462;28;20498;-64
2022/11/05 12:48:05;;;;;;;12.70;4.60;;;12.10;99.90;;;;;;5081193;28;20394;-64
2022/11/05 12:50:43;;;;;;;7.82;4.10;;;12.10;99.90;;;;;;5079184;28;20059;-63
2022/11/05 12:53:26;;;;;;;18.85;4.57;;;12.10;99.90;;;;;;5083620;28;20082;-64
2022/11/05 12:55:53;;;;;;;10.73;4.18;;;12.10;99.90;;;;;;5091002;28;20381;-64
2022/11/05 12:58:27;;;;;;;20.45;4.90;;;12.10;99.90;;;;;;5090890;28;20039;-64
2022/11/05 13:01:08;;;;;;;9.93;4.00;;;12.10;99.90;;;;;;5089544;28;20067;-65
2022/11/05 13:04:05;;;;;;;27.58;5.97;;;12.20;99.90;;;;;;5090935;28;20077;-65
2022/11/05 13:06:39;;;;;;;7.38;3.88;;;12.20;99.90;;;;;;5076988;28;20048;-64
2022/11/05 13:09:32;;;;;;;8.27;4.28;;;12.10;99.90;;;;;;5089878;28;20180;-63
2022/11/05 13:12:04;;;;;;;8.27;3.90;;;12.20;99.90;;;;;;5090510;28;20039;-63
2022/11/05 13:14:39;;;;;;;11.70;4.13;;;12.20;99.90;;;;;;5091247;28;20032;-64
2022/11/05 13:17:21;;;;;;;10.77;4.25;;;12.20;99.90;;;;;;5089475;28;20105;-64
2022/11/05 13:19:58;;;;;;;8.25;3.63;;;12.20;99.90;;;;;;5090553;28;20085;-64
2022/11/05 13:22:43;;;;;;;12.07;4.20;;;12.30;99.90;;;;;;5090491;28;20143;-64
2022/11/05 13:25:26;;;;;;;7.93;3.72;;;12.20;99.90;;;;;;5090812;28;20481;-64
2022/11/05 13:28:15;;;;;;;6.90;3.67;;;12.20;99.90;;;;;;5091282;28;20104;-66
2022/11/05 13:30:50;;;;;;;9.95;3.80;;;12.20;99.90;;;;;;5089056;28;20043;-65
2022/11/05 13:33:38;;;;;;;7.25;3.58;;;12.10;99.90;;;;;;5079240;28;20054;-66
2022/11/05 13:39:13;;;;;;;8.65;3.97;;;12.10;99.90;;;;;;5090756;28;20070;-65
2022/11/05 13:41:51;;;;;;;10.70;5.05;;;12.10;99.90;;;;;;5089835;28;20101;-65
2022/11/05 13:44:45;;;;;;;9.02;4.45;;;12.10;99.90;;;;;;5090467;28;20054;-66
2022/11/05 13:47:20;;;;;;;8.32;4.03;;;12.00;99.90;;;;;;5077777;28;20051;-66
2022/11/05 13:49:54;;;;;;;;;;;12.00;99.90;;;;;;5072706;28;20448;-67
2022/11/05 13:52:38;;;;;;;7.65;3.70;;;11.90;99.90;;;;;;5089778;28;19920;-66
2022/11/05 13:55:31;;;;;;;7.18;3.95;;;11.90;99.90;;;;;;5090007;28;20107;-66
2022/11/05 13:58:34;;;;;;;8.10;3.70;;;11.90;99.90;;;;;;5088886;28;20081;-65
2022/11/05 14:01:28;;;;;;;8.07;3.90;;;11.90;99.90;;;;;;5086494;28;20071;-65